Time;durP1;ratioP1;P1;durP2;ratioP2;P2;SDS_P1;SDS_P2;PMS_P1;PMS_P2;Temp;Humidity;BMP_temperature;BMP_pressure;BME280_temperature;BME280_humidity;BME280_pressure;Samples;Min_cycle;Max_cycle;Signal;HPM_P1;HPM_P2
2021/05/03 00:01:07;;;;;;;7.70;7.00;;;3.70;47.10;;;;;;5053194;28;20558;-71
2021/05/03 00:03:33;;;;;;;10.23;9.13;;;3.60;47.00;;;;;;5053359;28;20186;-71
2021/05/03 00:05:58;;;;;;;9.97;8.80;;;3.60;47.00;;;;;;5035351;28;20241;-71
2021/05/03 00:08:24;;;;;;;9.63;8.73;;;3.50;46.90;;;;;;5053534;28;20438;-71
2021/05/03 00:10:50;;;;;;;10.17;9.33;;;3.50;46.90;;;;;;5053341;28;20174;-71
2021/05/03 00:13:16;;;;;;;8.20;7.38;;;3.40;47.30;;;;;;5053535;28;20922;-71
2021/05/03 00:15:42;;;;;;;10.37;9.40;;;3.40;47.40;;;;;;5053277;28;20181;-71
2021/05/03 00:18:07;;;;;;;12.10;10.67;;;3.40;47.50;;;;;;5053353;28;20184;-71
2021/05/03 00:20:33;;;;;;;11.17;10.07;;;3.30;47.40;;;;;;5035071;28;20478;-72
2021/05/03 00:22:58;;;;;;;11.57;10.47;;;3.30;48.20;;;;;;5035261;28;20206;-72
2021/05/03 00:25:24;;;;;;;10.20;9.30;;;3.30;48.20;;;;;;5052985;28;20565;-72
2021/05/03 00:27:50;;;;;;;10.60;8.40;;;3.30;48.30;;;;;;5035073;28;20197;-72
2021/05/03 00:30:16;;;;;;;12.17;9.60;;;3.30;48.50;;;;;;5053244;28;20186;-72
2021/05/03 00:32:45;;;;;;;9.95;9.13;;;3.30;48.90;;;;;;5052733;28;20191;-72
2021/05/03 00:35:12;;;;;;;9.80;9.02;;;3.30;48.80;;;;;;5052910;28;20533;-72
2021/05/03 00:37:37;;;;;;;10.73;9.82;;;3.30;48.90;;;;;;5052929;28;20262;-72
2021/05/03 00:40:05;;;;;;;9.30;8.50;;;3.30;48.80;;;;;;5052592;28;20730;-72
2021/05/03 00:42:31;;;;;;;9.20;8.30;;;3.30;48.90;;;;;;5052601;28;20210;-72
2021/05/03 00:44:56;;;;;;;10.10;9.10;;;3.20;48.30;;;;;;5052742;28;20182;-72
2021/05/03 00:47:24;;;;;;;9.13;7.97;;;3.20;48.40;;;;;;5052529;28;20206;-72
2021/05/03 00:49:50;;;;;;;10.93;8.95;;;3.10;48.20;;;;;;5052491;28;20166;-72
2021/05/03 00:52:15;;;;;;;10.03;9.00;;;3.00;48.30;;;;;;5052512;28;20239;-72
2021/05/03 00:54:41;;;;;;;10.87;9.97;;;3.00;48.40;;;;;;5034798;28;20424;-72
2021/05/03 00:57:08;;;;;;;11.27;9.75;;;3.00;49.20;;;;;;5052241;28;20648;-72
2021/05/03 00:59:34;;;;;;;11.38;10.27;;;3.00;49.30;;;;;;5052217;28;20549;-72
2021/05/03 01:02:00;;;;;;;9.47;8.33;;;2.90;49.20;;;;;;5052832;28;20203;-71
2021/05/03 01:04:25;;;;;;;11.20;10.20;;;3.00;48.70;;;;;;5034640;28;21067;-72
2021/05/03 01:06:51;;;;;;;9.87;9.03;;;2.90;48.60;;;;;;5052606;28;20534;-73
2021/05/03 01:09:18;;;;;;;10.60;9.13;;;2.90;48.90;;;;;;5052403;28;20197;-72
2021/05/03 01:11:44;;;;;;;13.23;11.63;;;2.90;49.10;;;;;;5052555;28;20302;-72
2021/05/03 01:14:09;;;;;;;14.03;10.07;;;2.80;49.30;;;;;;5052242;28;20253;-71
2021/05/03 01:16:35;;;;;;;11.03;9.77;;;2.80;49.30;;;;;;5052120;28;20417;-72
2021/05/03 01:19:00;;;;;;;9.80;8.87;;;2.80;49.20;;;;;;5033958;28;20225;-72
2021/05/03 01:21:27;;;;;;;11.47;10.37;;;2.80;49.10;;;;;;5034234;28;20301;-72
2021/05/03 01:23:53;;;;;;;11.07;10.05;;;2.80;49.10;;;;;;5051975;28;20209;-71
2021/05/03 01:26:19;;;;;;;12.07;10.93;;;2.70;49.10;;;;;;5033992;28;20198;-72
2021/05/03 01:28:46;;;;;;;10.40;9.32;;;2.70;49.20;;;;;;5051567;28;20413;-73
2021/05/03 01:31:12;;;;;;;9.70;8.68;;;2.60;49.80;;;;;;5033943;28;20195;-72
2021/05/03 01:33:41;;;;;;;12.05;10.90;;;2.60;50.10;;;;;;5051950;28;20182;-72
2021/05/03 01:36:07;;;;;;;12.60;10.90;;;2.70;50.10;;;;;;5052015;28;20173;-73
2021/05/03 01:38:33;;;;;;;13.03;11.03;;;2.60;50.30;;;;;;5051890;28;20182;-72
2021/05/03 01:40:59;;;;;;;21.73;11.83;;;2.60;50.20;;;;;;5051229;28;20280;-72
2021/05/03 01:43:27;;;;;;;11.60;10.30;;;2.50;50.30;;;;;;5051710;28;20467;-72
2021/05/03 01:45:58;;;;;;;13.25;10.50;;;2.60;51.10;;;;;;5051795;28;20799;-72
2021/05/03 01:48:28;;;;;;;12.65;10.70;;;2.50;51.00;;;;;;5052511;28;20173;-72
2021/05/03 01:50:56;;;;;;;12.13;10.85;;;2.50;50.40;;;;;;5051393;28;20629;-72
2021/05/03 01:53:23;;;;;;;12.90;11.52;;;2.50;50.60;;;;;;5033770;28;20642;-73
2021/05/03 01:55:52;;;;;;;17.25;11.98;;;2.50;51.00;;;;;;5051617;28;20190;-72
2021/05/03 01:58:18;;;;;;;16.02;14.02;;;2.50;51.00;;;;;;5051456;28;20184;-72
2021/05/03 02:00:44;;;;;;;15.87;14.40;;;2.50;51.00;;;;;;5051108;28;20548;-72
2021/05/03 02:03:20;;;;;;;15.53;13.67;;;2.50;51.30;;;;;;5051236;28;20422;-73
2021/05/03 02:05:46;;;;;;;14.43;13.13;;;2.50;51.60;;;;;;5051177;28;20682;-72
2021/05/03 02:08:12;;;;;;;16.07;14.40;;;2.40;51.20;;;;;;5050518;28;20179;-72
2021/05/03 02:10:38;;;;;;;14.50;13.00;;;2.40;51.10;;;;;;5050829;28;20200;-72
2021/05/03 02:13:04;;;;;;;11.70;10.50;;;2.40;51.10;;;;;;5051258;28;20166;-73
2021/05/03 02:15:31;;;;;;;16.30;12.27;;;2.40;51.50;;;;;;5050979;28;20780;-72
2021/05/03 02:17:57;;;;;;;14.10;12.52;;;2.40;52.00;;;;;;5051001;28;20344;-73
2021/05/03 02:20:23;;;;;;;12.53;11.23;;;2.50;51.00;;;;;;5032904;28;20182;-72
2021/05/03 02:22:49;;;;;;;13.10;11.93;;;2.50;51.00;;;;;;5050822;28;20429;-72
2021/05/03 02:25:15;;;;;;;14.10;12.70;;;2.50;50.50;;;;;;5051126;28;20178;-72
2021/05/03 02:27:41;;;;;;;13.35;11.95;;;2.50;51.00;;;;;;5051049;28;20185;-73
2021/05/03 02:30:09;;;;;;;14.10;12.52;;;2.40;50.90;;;;;;5051121;28;20723;-72
2021/05/03 02:32:35;;;;;;;14.85;13.38;;;2.40;50.90;;;;;;5051031;28;20194;-72
2021/05/03 02:35:10;;;;;;;15.45;13.85;;;2.40;50.90;;;;;;5032934;28;20271;-73
2021/05/03 02:37:36;;;;;;;16.05;13.02;;;2.40;51.90;;;;;;5050878;28;20166;-72
2021/05/03 02:40:03;;;;;;;13.27;12.00;;;2.40;51.60;;;;;;5050639;28;20630;-72
2021/05/03 02:42:29;;;;;;;17.73;13.25;;;2.40;51.70;;;;;;5078962;23;20518;-69
2021/05/03 02:44:54;;;;;;;12.50;11.00;;;2.40;51.40;;;;;;5075885;28;20220;-70
2021/05/03 02:47:20;;;;;;;13.77;12.57;;;2.40;51.60;;;;;;5077194;28;20684;-69
2021/05/03 02:49:46;;;;;;;15.83;14.27;;;2.40;51.20;;;;;;5076390;28;20170;-69
2021/05/03 02:52:12;;;;;;;11.88;10.55;;;2.30;51.00;;;;;;5076958;28;20204;-69
2021/05/03 02:54:37;;;;;;;13.17;12.00;;;2.30;51.20;;;;;;5076704;28;20180;-70
2021/05/03 02:57:03;;;;;;;12.67;11.40;;;2.30;51.20;;;;;;5076147;28;20492;-69
2021/05/03 02:59:29;;;;;;;13.40;12.20;;;2.30;51.80;;;;;;5075615;28;20649;-68
2021/05/03 03:01:54;;;;;;;15.03;13.13;;;2.30;51.30;;;;;;5076150;28;20205;-69
2021/05/03 03:04:20;;;;;;;15.63;12.97;;;2.30;51.70;;;;;;5076603;28;20180;-68
2021/05/03 03:06:46;;;;;;;15.83;13.70;;;2.20;51.40;;;;;;5075880;28;20224;-69
2021/05/03 03:09:12;;;;;;;14.17;12.83;;;2.20;51.30;;;;;;5077716;28;20207;-69
2021/05/03 03:11:38;;;;;;;14.40;13.13;;;2.20;51.40;;;;;;5076680;28;20278;-69
2021/05/03 03:14:03;;;;;;;13.43;12.02;;;2.20;51.40;;;;;;5075683;28;20205;-70
2021/05/03 03:16:30;;;;;;;13.00;11.77;;;2.10;51.60;;;;;;5076221;28;20206;-70
2021/05/03 03:18:58;;;;;;;14.15;12.50;;;2.10;52.20;;;;;;5076271;28;20430;-70
2021/05/03 03:21:24;;;;;;;15.15;13.65;;;2.10;52.50;;;;;;5083319;28;20225;-71
2021/05/03 03:23:50;;;;;;;13.27;11.97;;;2.10;52.40;;;;;;5084698;28;20170;-69
2021/05/03 03:26:15;;;;;;;14.77;13.37;;;2.20;52.40;;;;;;5082772;28;20463;-71
2021/05/03 03:28:41;;;;;;;14.77;13.27;;;2.10;52.00;;;;;;5080154;28;20177;-71
2021/05/03 03:31:06;;;;;;;14.63;13.13;;;2.10;52.10;;;;;;5083127;28;20193;-72
2021/05/03 03:33:32;;;;;;;20.03;14.40;;;2.10;52.40;;;;;;5083267;28;20227;-71
2021/05/03 03:35:58;;;;;;;12.50;11.40;;;2.10;52.00;;;;;;5082894;28;20189;-71
2021/05/03 03:38:23;;;;;;;18.60;13.93;;;2.10;52.10;;;;;;5080831;28;20181;-71
2021/05/03 03:40:49;;;;;;;14.80;13.50;;;2.10;51.90;;;;;;5078661;28;20188;-70
2021/05/03 03:43:14;;;;;;;14.30;13.00;;;2.00;51.60;;;;;;5079736;28;20226;-72
2021/05/03 03:45:40;;;;;;;15.37;13.87;;;2.00;51.90;;;;;;5079168;28;20201;-71
2021/05/03 03:48:06;;;;;;;17.20;14.80;;;2.00;51.70;;;;;;5079258;28;20180;-71
2021/05/03 03:50:32;;;;;;;14.70;13.13;;;1.90;51.70;;;;;;5095347;28;20527;-71
2021/05/03 03:52:58;;;;;;;17.53;15.13;;;2.00;52.70;;;;;;5096423;28;20203;-71
2021/05/03 03:55:25;;;;;;;15.75;14.10;;;2.00;52.10;;;;;;5081000;28;20169;-71
2021/05/03 03:57:50;;;;;;;14.95;13.35;;;2.00;52.30;;;;;;5080628;28;20269;-71
2021/05/03 04:00:17;;;;;;;15.43;13.87;;;2.00;52.50;;;;;;5079995;28;20486;-71
2021/05/03 04:02:45;;;;;;;15.20;13.70;;;2.00;52.00;;;;;;5080531;28;20190;-71
2021/05/03 04:08:02;;;;;;;14.57;11.95;;;2.00;52.20;;;;;;5080571;28;20662;-72
2021/05/03 04:21:17;;;;;;;17.50;14.73;;;2.00;52.00;;;;;;5078314;28;20608;-71
2021/05/03 04:23:54;;;;;;;16.52;14.60;;;2.00;52.10;;;;;;5078954;28;20186;-71
2021/05/03 04:26:21;;;;;;;20.85;16.13;;;2.00;52.40;;;;;;5077855;28;20213;-72
2021/05/03 04:28:48;;;;;;;15.57;14.18;;;;;;;;;;5078417;28;20208;-71
2021/05/03 04:31:14;;;;;;;13.88;12.50;;;;;;;;;;5077592;28;20200;-71
2021/05/03 04:33:40;;;;;;;16.38;14.23;;;;;;;;;;5079245;28;20176;-70
2021/05/03 04:36:06;;;;;;;18.23;16.33;;;;;;;;;;5079175;28;20177;-70
2021/05/03 04:38:32;;;;;;;20.43;18.37;;;;;;;;;;5078759;28;20185;-71
2021/05/03 04:40:58;;;;;;;23.63;20.03;;;;;;;;;;5078115;28;20416;-70
2021/05/03 04:43:24;;;;;;;36.60;18.25;;;;;;;;;;5078076;28;20479;-71
2021/05/03 04:45:50;;;;;;;21.27;19.17;;;;;;;;;;5078143;28;20198;-71
2021/05/03 04:48:16;;;;;;;22.73;18.00;;;;;;;;;;5094184;28;20905;-71
2021/05/03 04:50:42;;;;;;;20.77;18.77;;;;;;;;;;5077734;28;20434;-71
2021/05/03 04:53:09;;;;;;;20.73;18.63;;;;;;;;;;5093761;28;20202;-71
2021/05/03 04:55:34;;;;;;;19.08;17.27;;;2.00;52.60;;;;;;5077697;28;20178;-71
2021/05/03 04:58:00;;;;;;;21.10;15.37;;;2.60;50.00;;;;;;5078083;28;20185;-71
2021/05/03 05:00:25;;;;;;;19.53;17.60;;;2.70;49.50;;;;;;5077760;28;20170;-70
2021/05/03 05:02:51;;;;;;;18.97;17.10;;;2.70;49.20;;;;;;5077960;28;20285;-71
2021/05/03 05:05:17;;;;;;;22.30;20.00;;;;;;;;;;5078075;28;20174;-70
2021/05/03 05:07:43;;;;;;;23.90;21.30;;;;;;;;;;5080491;28;20342;-70
2021/05/03 05:10:11;;;;;;;22.23;19.55;;;2.80;49.10;;;;;;5096751;28;20617;-69
2021/05/03 05:12:37;;;;;;;21.88;19.77;;;3.20;51.80;;;;;;5081485;28;20250;-71
2021/05/03 05:15:04;;;;;;;16.55;14.85;;;;;;;;;;5081555;28;20174;-70
2021/05/03 05:17:31;;;;;;;24.08;13.95;;;;;;;;;;5100107;28;20608;-71
2021/05/03 05:19:56;;;;;;;13.87;12.47;;;5.90;46.80;;;;;;5084567;28;20173;-71
2021/05/03 05:22:22;;;;;;;12.70;8.90;;;;;;;;;;5084119;28;20455;-71
2021/05/03 05:24:48;;;;;;;11.23;10.20;;;;;;;;;;5084903;28;20172;-72
2021/05/03 05:27:14;;;;;;;12.20;11.10;;;;;;;;;;5084335;28;20472;-70
2021/05/03 05:29:41;;;;;;;11.33;10.33;;;;;;;;;;5083083;28;20439;-71
2021/05/03 05:32:07;;;;;;;11.90;10.70;;;;;;;;;;5081898;28;20945;-72
2021/05/03 05:34:33;;;;;;;12.57;11.37;;;;;;;;;;5081473;28;20407;-70
2021/05/03 05:36:59;;;;;;;11.07;10.17;;;;;;;;;;5081419;28;20420;-71
2021/05/03 05:39:24;;;;;;;11.90;10.77;;;;;;;;;;5079964;28;20412;-72
2021/05/03 05:41:50;;;;;;;11.63;10.53;;;;;;;;;;5078083;28;20525;-70
2021/05/03 05:44:16;;;;;;;11.27;10.40;;;8.50;29.60;;;;;;5079261;28;20450;-71
2021/05/03 05:46:44;;;;;;;12.87;11.77;;;14.40;15.80;;;;;;5080414;28;20467;-70
2021/05/03 05:49:10;;;;;;;10.93;9.97;;;14.80;14.30;;;;;;5080344;28;20708;-69
2021/05/03 05:51:35;;;;;;;11.40;10.60;;;15.30;13.30;;;;;;5080575;28;20444;-69
2021/05/03 05:54:01;;;;;;;11.10;10.10;;;15.50;13.40;;;;;;5080816;28;20470;-69
2021/05/03 05:56:27;;;;;;;10.00;9.20;;;15.50;13.40;;;;;;5078041;28;20173;-69
2021/05/03 05:58:52;;;;;;;11.20;10.27;;;15.80;12.30;;;;;;5080438;28;20352;-71
2021/05/03 06:01:18;;;;;;;10.77;9.73;;;16.10;11.30;;;;;;5080992;28;20197;-70
2021/05/03 06:03:44;;;;;;;8.93;8.33;;;16.40;11.70;;;;;;5077078;28;20259;-68
2021/05/03 06:06:11;;;;;;;10.77;9.87;;;16.70;11.40;;;;;;5077413;28;20212;-69
2021/05/03 06:08:36;;;;;;;10.27;9.57;;;17.00;11.30;;;;;;5075903;28;20204;-71
2021/05/03 06:11:02;;;;;;;10.80;9.87;;;17.00;11.50;;;;;;5077510;28;20417;-70
2021/05/03 06:13:28;;;;;;;12.40;11.33;;;17.10;11.00;;;;;;5075568;28;20178;-70
2021/05/03 06:15:55;;;;;;;10.23;9.53;;;17.10;11.60;;;;;;5078361;28;20181;-70
2021/05/03 06:18:20;;;;;;;12.47;10.30;;;17.50;10.40;;;;;;5078220;28;20427;-70
2021/05/03 06:20:46;;;;;;;10.57;9.67;;;17.80;9.70;;;;;;5077876;28;20420;-69
2021/05/03 06:23:13;;;;;;;12.27;11.27;;;;;;;;;;5078030;28;20648;-71
2021/05/03 06:25:39;;;;;;;11.53;10.80;;;18.00;9.70;;;;;;5078665;28;20206;-70
2021/05/03 06:28:05;;;;;;;12.57;11.57;;;18.30;9.80;;;;;;5078073;28;20416;-71
2021/05/03 06:30:31;;;;;;;10.77;10.07;;;18.40;9.20;;;;;;5078924;28;20415;-70
2021/05/03 06:32:56;;;;;;;11.53;10.53;;;18.70;9.20;;;;;;5079391;28;20204;-70
2021/05/03 06:35:22;;;;;;;13.00;11.97;;;18.70;8.30;;;;;;5078809;28;20174;-71
2021/05/03 06:37:49;;;;;;;11.87;10.87;;;18.90;9.00;;;;;;5079044;28;20188;-71
2021/05/03 06:40:15;;;;;;;10.90;10.20;;;19.30;8.40;;;;;;5080667;28;20435;-70
2021/05/03 06:42:41;;;;;;;10.73;9.93;;;19.70;8.50;;;;;;5096767;28;20478;-72
2021/05/03 06:45:09;;;;;;;10.43;9.57;;;20.00;7.60;;;;;;5081691;28;20416;-70
2021/05/03 06:47:36;;;;;;;10.77;10.03;;;20.40;11.40;;;;;;5081325;28;20471;-69
2021/05/03 06:50:02;;;;;;;11.93;10.00;;;;;;;;;;5080862;28;20427;-70
2021/05/03 06:52:27;;;;;;;10.00;9.40;;;20.80;5.60;;;;;;5082120;28;20499;-70
2021/05/03 06:54:53;;;;;;;10.60;9.70;;;20.80;5.90;;;;;;5084330;28;20412;-71
2021/05/03 06:57:19;;;;;;;10.67;9.97;;;20.80;6.40;;;;;;5085642;28;20185;-72
2021/05/03 06:59:44;;;;;;;8.60;8.00;;;20.80;5.50;;;;;;5084590;28;20186;-72
2021/05/03 07:02:11;;;;;;;8.57;8.07;;;21.10;5.40;;;;;;5085765;28;20436;-72
2021/05/03 07:04:37;;;;;;;8.10;7.60;;;21.10;3.20;;;;;;5084344;28;20174;-72
2021/05/03 07:07:03;;;;;;;10.03;9.23;;;;;;;;;;5083788;28;20455;-71
2021/05/03 07:09:29;;;;;;;9.27;8.60;;;21.00;3.80;;;;;;5084682;28;20770;-71
2021/05/03 07:11:56;;;;;;;9.07;8.50;;;20.50;4.30;;;;;;5081805;28;20440;-72
2021/05/03 07:14:22;;;;;;;9.23;8.67;;;20.60;5.80;;;;;;5082206;28;20173;-71
2021/05/03 07:16:47;;;;;;;9.43;8.93;;;20.60;4.00;;;;;;5082662;28;20412;-71
2021/05/03 07:19:13;;;;;;;9.63;8.87;;;20.50;4.60;;;;;;5080731;28;20174;-72
2021/05/03 07:21:39;;;;;;;9.83;9.17;;;20.60;4.00;;;;;;5082197;28;20204;-71
2021/05/03 07:24:05;;;;;;;9.07;8.27;;;20.40;5.20;;;;;;5082121;28;20233;-72
2021/05/03 07:26:31;;;;;;;10.43;9.83;;;20.80;4.90;;;;;;5080155;28;20212;-70
2021/05/03 07:28:56;;;;;;;10.50;9.87;;;21.10;3.70;;;;;;5077891;28;20419;-72
2021/05/03 07:31:22;;;;;;;10.77;10.13;;;21.60;3.60;;;;;;5079428;28;20697;-72
2021/05/03 07:33:47;;;;;;;10.63;10.00;;;21.50;3.30;;;;;;5079832;28;20253;-72
2021/05/03 07:36:13;;;;;;;11.00;10.40;;;21.40;2.90;;;;;;5081320;28;20256;-72
2021/05/03 07:38:39;;;;;;;11.83;10.93;;;20.90;4.30;;;;;;5077989;28;20178;-71
2021/05/03 07:41:04;;;;;;;9.70;9.07;;;20.70;3.40;;;;;;5079810;28;20181;-71
2021/05/03 07:43:30;;;;;;;11.30;10.60;;;20.40;3.20;;;;;;5080572;28;20238;-72
2021/05/03 07:45:56;;;;;;;10.93;10.13;;;20.10;3.00;;;;;;5080061;28;20265;-70
2021/05/03 07:48:21;;;;;;;12.23;11.40;;;20.40;2.70;;;;;;5079441;28;20188;-72
2021/05/03 07:50:47;;;;;;;10.77;10.17;;;20.40;3.20;;;;;;5079046;28;20174;-72
2021/05/03 07:53:12;;;;;;;11.13;10.27;;;20.60;2.60;;;;;;5077755;28;20197;-72
2021/05/03 07:55:38;;;;;;;11.83;11.23;;;20.60;2.60;;;;;;5077873;28;20174;-71
2021/05/03 07:58:04;;;;;;;11.67;11.07;;;21.00;1.90;;;;;;5073615;28;20177;-71
2021/05/03 08:00:30;;;;;;;11.27;10.70;;;20.70;1.00;;;;;;5073500;28;20176;-71
2021/05/03 08:02:56;;;;;;;11.33;10.83;;;21.50;1.50;;;;;;5073620;28;20232;-71
2021/05/03 08:05:23;;;;;;;11.67;11.03;;;21.70;2.20;;;;;;5072413;28;20781;-72
2021/05/03 08:07:48;;;;;;;12.67;11.70;;;21.50;2.90;;;;;;5072100;28;20509;-71
2021/05/03 08:10:14;;;;;;;13.47;12.67;;;21.70;1.10;;;;;;5073346;28;20412;-71
2021/05/03 08:12:39;;;;;;;12.67;11.93;;;21.60;1.70;;;;;;5073406;28;20201;-71
2021/05/03 08:15:15;;;;;;;14.03;13.43;;;21.20;2.10;;;;;;5072338;28;20174;-71
2021/05/03 08:17:43;;;;;;;13.93;13.33;;;20.00;2.00;;;;;;5073388;28;20284;-70
2021/05/03 08:20:16;;;;;;;13.60;12.80;;;18.80;3.70;;;;;;5073110;28;20424;-71
2021/05/03 08:22:41;;;;;;;13.97;13.27;;;18.40;4.60;;;;;;5073021;28;20438;-70
2021/05/03 08:25:08;;;;;;;14.77;13.70;;;18.90;4.90;;;;;;5074738;28;20412;-70
2021/05/03 08:27:35;;;;;;;13.60;12.90;;;19.10;4.30;;;;;;5079126;28;20202;-72
2021/05/03 08:30:01;;;;;;;13.90;13.10;;;19.90;3.40;;;;;;5065398;28;20449;-71
2021/05/03 08:32:26;;;;;;;14.20;13.60;;;20.70;2.60;;;;;;5057431;28;20456;-71
2021/05/03 08:34:52;;;;;;;14.03;13.33;;;21.10;1.00;;;;;;5058327;28;20458;-72
2021/05/03 08:37:18;;;;;;;14.90;14.20;;;20.90;1.00;;;;;;5079060;28;20185;-74
2021/05/03 08:39:44;;;;;;;16.17;15.17;;;19.70;1.50;;;;;;5073445;28;20234;-72
2021/05/03 08:42:13;;;;;;;14.13;13.60;;;19.10;1.60;;;;;;5067897;28;20477;-72
2021/05/03 08:44:38;;;;;;;15.90;15.27;;;18.40;1.10;;;;;;5060718;28;20191;-72
2021/05/03 08:47:04;;;;;;;16.00;15.27;;;17.20;3.10;;;;;;5052179;28;20507;-72
2021/05/03 08:52:17;;;;;;;14.50;13.90;;;16.30;5.00;;;;;;5072408;28;20391;-72
2021/05/03 08:54:44;;;;;;;16.07;15.27;;;16.10;5.50;;;;;;5061271;28;20432;-73
2021/05/03 08:57:12;;;;;;;16.40;15.67;;;16.00;6.00;;;;;;5072587;28;20458;-72
2021/05/03 08:59:40;;;;;;;17.07;16.10;;;16.00;5.20;;;;;;5062048;28;20415;-72
2021/05/03 09:02:07;;;;;;;15.03;14.23;;;15.90;5.50;;;;;;5071252;28;20607;-72
2021/05/03 09:04:34;;;;;;;14.80;14.20;;;15.60;6.00;;;;;;5072280;28;20427;-72
2021/05/03 09:07:14;;;;;;;14.77;13.97;;;15.40;5.90;;;;;;5071055;28;20525;-73
2021/05/03 09:09:42;;;;;;;14.93;14.33;;;15.40;7.10;;;;;;5072224;28;20438;-72
2021/05/03 09:12:12;;;;;;;15.33;14.63;;;15.70;6.80;;;;;;5072388;28;20926;-72
2021/05/03 09:15:04;;;;;;;14.57;13.83;;;15.80;5.10;;;;;;5072196;28;20404;-73
2021/05/03 09:17:31;;;;;;;15.53;14.93;;;15.90;6.70;;;;;;5062412;28;20451;-72
2021/05/03 09:19:58;;;;;;;15.80;15.10;;;15.80;4.70;;;;;;5071177;28;20424;-72
2021/05/03 09:22:29;;;;;;;15.10;14.40;;;15.60;5.70;;;;;;5068059;28;20813;-72
2021/05/03 09:25:21;;;;;;;16.80;15.80;;;15.60;4.60;;;;;;5052662;28;20838;-72
2021/05/03 09:27:47;;;;;;;15.50;14.50;;;15.40;5.20;;;;;;5067079;28;20459;-72
2021/05/03 09:30:41;;;;;;;15.63;14.83;;;15.30;5.60;;;;;;5066868;28;21013;-73
2021/05/03 09:33:15;;;;;;;17.17;16.27;;;15.40;5.40;;;;;;5052337;28;20436;-72
2021/05/03 09:35:45;;;;;;;15.80;15.00;;;15.40;6.00;;;;;;5061973;28;20788;-70
2021/05/03 09:38:26;;;;;;;15.90;15.27;;;15.40;5.40;;;;;;5059625;28;20453;-71
2021/05/03 09:41:10;;;;;;;15.77;15.07;;;15.30;4.30;;;;;;5068346;28;20642;-70
2021/05/03 09:43:40;;;;;;;16.20;15.40;;;15.20;4.30;;;;;;5053841;28;20493;-70
2021/05/03 09:46:27;;;;;;;15.90;15.20;;;15.40;5.90;;;;;;5071897;28;21003;-70
2021/05/03 09:48:54;;;;;;;16.77;16.07;;;15.50;6.30;;;;;;5067873;28;20427;-70
2021/05/03 09:51:34;;;;;;;16.43;15.63;;;15.40;5.70;;;;;;5052696;28;20440;-70
2021/05/03 09:54:09;;;;;;;16.20;15.50;;;15.30;4.90;;;;;;5060590;28;20810;-70
2021/05/03 09:56:50;;;;;;;16.40;15.60;;;15.40;5.40;;;;;;5071376;28;20479;-70
2021/05/03 09:59:27;;;;;;;15.87;15.17;;;15.40;5.70;;;;;;5062223;28;20411;-69
2021/05/03 10:02:22;;;;;;;16.30;15.50;;;15.40;6.10;;;;;;5061437;28;20451;-71
2021/05/03 10:05:09;;;;;;;16.47;15.47;;;15.40;5.60;;;;;;5065636;28;20431;-70
2021/05/03 10:07:37;;;;;;;15.97;15.27;;;15.20;5.60;;;;;;5066530;28;20464;-70
2021/05/03 10:10:10;;;;;;;16.70;15.83;;;14.90;5.60;;;;;;5054631;28;20442;-73
2021/05/03 10:12:35;;;;;;;15.60;14.70;;;15.00;4.50;;;;;;5072407;28;20527;-72
2021/05/03 10:15:05;;;;;;;14.90;14.30;;;15.20;4.70;;;;;;5072553;28;20420;-73
2021/05/03 10:17:31;;;;;;;14.40;13.80;;;15.50;5.00;;;;;;5075002;28;20385;-71
2021/05/03 10:19:59;;;;;;;15.50;14.70;;;15.90;5.10;;;;;;5062500;28;20429;-72
2021/05/03 10:22:26;;;;;;;15.40;14.60;;;16.20;4.90;;;;;;5051553;28;20468;-71
2021/05/03 10:25:24;;;;;;;15.33;14.73;;;16.30;4.70;;;;;;5062879;28;20424;-72
2021/05/03 10:27:52;;;;;;;16.23;15.53;;;16.20;1.00;;;;;;5036664;28;20475;-72
2021/05/03 10:30:20;;;;;;;17.40;16.60;;;16.20;2.70;;;;;;5070919;28;20412;-72
2021/05/03 10:33:03;;;;;;;16.93;16.10;;;16.20;2.50;;;;;;5071765;28;20444;-73
2021/05/03 10:35:49;;;;;;;16.90;16.20;;;15.90;2.80;;;;;;5071457;28;20431;-74
2021/05/03 10:38:37;;;;;;;16.90;15.93;;;15.70;3.30;;;;;;5071495;28;20433;-73
2021/05/03 10:41:21;;;;;;;16.60;15.80;;;15.70;3.80;;;;;;5064610;28;20427;-72
2021/05/03 10:43:47;;;;;;;17.00;15.93;;;15.70;3.70;;;;;;5069973;28;20427;-74
2021/05/03 10:49:03;;;;;;;17.03;16.23;;;15.70;2.60;;;;;;5067864;28;20435;-73
2021/05/03 10:51:32;;;;;;;17.17;16.27;;;15.70;3.30;;;;;;5070629;28;20416;-73
2021/05/03 10:54:19;;;;;;;16.47;15.77;;;15.60;3.90;;;;;;5051587;28;20979;-73
2021/05/03 10:56:44;;;;;;;17.10;16.37;;;15.40;4.10;;;;;;5070612;28;20431;-72
2021/05/03 10:59:14;;;;;;;16.87;16.07;;;15.20;2.70;;;;;;5070460;28;20931;-73
2021/05/03 11:01:52;;;;;;;16.60;15.80;;;15.20;3.70;;;;;;5070007;28;20976;-73
2021/05/03 11:04:19;;;;;;;15.57;14.93;;;15.20;3.10;;;;;;5070388;28;20422;-72
2021/05/03 11:06:47;;;;;;;16.80;16.00;;;15.20;3.20;;;;;;5070393;28;20462;-73
2021/05/03 11:09:25;;;;;;;15.70;15.10;;;15.60;4.50;;;;;;5070302;28;20412;-73
2021/05/03 11:11:51;;;;;;;16.07;15.37;;;16.10;2.80;;;;;;5070285;28;21048;-73
2021/05/03 11:14:19;;;;;;;16.97;16.13;;;16.20;2.70;;;;;;5070385;28;20467;-73
2021/05/03 11:16:48;;;;;;;16.13;15.53;;;16.30;3.40;;;;;;5070382;28;20874;-73
2021/05/03 11:19:28;;;;;;;15.77;15.17;;;16.30;2.10;;;;;;5070176;28;20411;-72
2021/05/03 11:21:54;;;;;;;15.83;15.23;;;16.20;2.90;;;;;;5062652;28;20546;-73
2021/05/03 11:24:24;;;;;;;16.97;16.27;;;16.10;3.00;;;;;;5070067;28;20540;-72
2021/05/03 11:27:01;;;;;;;15.43;14.73;;;16.10;1.60;;;;;;5070186;28;20372;-73
2021/05/03 11:29:39;;;;;;;16.47;15.77;;;16.10;2.10;;;;;;5070019;28;20407;-73
2021/05/03 11:32:06;;;;;;;15.77;15.17;;;16.20;1.00;;;;;;5050341;28;20444;-73
2021/05/03 11:34:38;;;;;;;15.17;14.57;;;16.30;1.00;;;;;;5050408;28;20414;-73
2021/05/03 11:37:07;;;;;;;16.63;15.87;;;16.40;1.00;;;;;;5050399;28;20413;-72
2021/05/03 11:44:58;;;;;;;15.60;15.00;;;16.20;1.70;;;;;;5063441;28;20438;-72
2021/05/03 11:47:33;;;;;;;16.43;15.80;;;16.70;1.00;;;;;;5053722;28;20456;-73
2021/05/03 11:49:58;;;;;;;16.23;15.63;;;17.00;1.00;;;;;;5057489;28;20213;-72
2021/05/03 11:52:36;;;;;;;16.60;15.90;;;17.00;1.00;;;;;;5072288;28;20482;-72
2021/05/03 11:55:10;;;;;;;17.73;16.83;;;16.80;1.00;;;;;;5073868;28;20248;-72
2021/05/03 11:57:40;;;;;;;17.20;16.50;;;16.70;1.00;;;;;;5073513;28;20454;-72
2021/05/03 12:00:07;;;;;;;16.77;16.17;;;16.50;1.00;;;;;;5069422;28;20538;-73
2021/05/03 12:02:33;;;;;;;17.23;16.53;;;16.10;1.00;;;;;;5073439;28;20434;-72
2021/05/03 12:04:59;;;;;;;18.27;17.40;;;15.90;1.00;;;;;;5062296;28;20428;-72
2021/05/03 12:07:30;;;;;;;17.47;16.67;;;15.70;1.00;;;;;;5052554;28;20216;-70
2021/05/03 12:10:00;;;;;;;17.53;16.83;;;15.50;1.00;;;;;;5051633;28;20186;-74
2021/05/03 12:12:32;;;;;;;17.30;16.60;;;15.40;1.10;;;;;;5059441;28;21073;-73
2021/05/03 12:14:57;;;;;;;17.57;16.73;;;15.40;1.00;;;;;;5069464;28;20557;-76
2021/05/03 12:17:29;;;;;;;16.37;15.77;;;15.60;1.30;;;;;;5067862;28;20482;-73
2021/05/03 12:20:10;;;;;;;16.00;15.40;;;15.80;1.30;;;;;;5068376;28;20182;-73
2021/05/03 12:22:37;;;;;;;16.10;15.50;;;16.20;1.00;;;;;;5070057;28;20885;-73
2021/05/03 12:25:10;;;;;;;17.30;16.50;;;16.60;2.10;;;;;;5064419;28;20420;-73
2021/05/03 12:27:37;;;;;;;17.00;16.30;;;17.00;1.00;;;;;;5054666;28;21018;-73
2021/05/03 12:30:05;;;;;;;16.93;16.23;;;17.20;1.00;;;;;;5049912;28;20424;-74
2021/05/03 12:32:34;;;;;;;17.53;16.73;;;17.10;1.00;;;;;;5074920;28;20527;-73
2021/05/03 12:35:06;;;;;;;16.63;15.93;;;16.90;1.00;;;;;;5074169;28;20412;-73
2021/05/03 12:37:31;;;;;;;16.57;15.87;;;16.70;1.00;;;;;;5062920;28;20687;-73
2021/05/03 12:40:02;;;;;;;16.40;15.70;;;16.50;1.50;;;;;;5065200;28;20591;-73
2021/05/03 12:42:48;;;;;;;17.50;16.70;;;16.60;1.00;;;;;;5078065;28;20248;-73
2021/05/03 12:45:17;;;;;;;16.40;15.80;;;16.50;1.00;;;;;;5077429;28;20412;-72
2021/05/03 12:57:07;;;;;;;17.53;16.73;;;16.70;1.00;;;;;;5034010;28;20463;-73
2021/05/03 12:59:47;;;;;;;16.37;15.60;;;16.50;1.00;;;;;;5063349;28;20559;-73
2021/05/03 13:05:05;;;;;;;17.37;16.67;;;16.40;1.00;;;;;;5074962;28;20799;-73
2021/05/03 13:29:56;;;;;;;16.90;16.20;;;15.30;1.00;;;;;;5057340;28;20409;-73
2021/05/03 13:32:28;;;;;;;16.80;16.20;;;15.10;1.50;;;;;;5071367;28;20810;-73
2021/05/03 13:34:54;;;;;;;15.97;15.37;;;15.10;2.20;;;;;;5072491;28;20933;-73
2021/05/03 13:37:21;;;;;;;16.70;16.10;;;15.00;3.00;;;;;;5072810;28;20899;-73
2021/05/03 13:39:47;;;;;;;17.17;16.47;;;15.10;1.50;;;;;;5072492;28;20411;-73
2021/05/03 13:42:14;;;;;;;16.23;15.63;;;15.10;2.40;;;;;;5072316;28;20447;-73
2021/05/03 13:44:41;;;;;;;16.57;15.97;;;15.20;2.90;;;;;;5063498;28;20258;-73
2021/05/03 13:47:07;;;;;;;17.20;16.50;;;15.20;1.60;;;;;;5051770;28;20970;-73
2021/05/03 13:49:34;;;;;;;17.33;16.53;;;15.00;2.10;;;;;;5051453;28;20897;-73